Time;durP1;ratioP1;P1;durP2;ratioP2;P2;SDS_P1;SDS_P2;PMS_P1;PMS_P2;Temp;Humidity;BMP_temperature;BMP_pressure;BME280_temperature;BME280_humidity;BME280_pressure;Samples;Min_cycle;Max_cycle;Signal;HPM_P1;HPM_P2
2022/08/24 00:03:18;;;;;;;3.00;2.60;;;;;;;23.98;40.63;100261.47;10387587;28;20686;-74
2022/08/24 00:08:20;;;;;;;3.53;1.92;;;;;;;23.98;40.02;100261.47;10386504;28;20045;-75
2022/08/24 00:13:21;;;;;;;4.45;1.88;;;;;;;23.96;41.00;100263.56;10396775;28;20132;-76
2022/08/24 00:18:23;;;;;;;1.45;1.35;;;;;;;23.88;40.67;100266.47;10394866;28;20049;-77
2022/08/24 00:23:24;;;;;;;3.35;2.15;;;;;;;23.84;40.91;100259.78;10394627;28;20051;-78
2022/08/24 00:28:26;;;;;;;2.63;1.58;;;;;;;23.80;40.94;100253.91;10392117;28;20133;-76
2022/08/24 00:33:28;;;;;;;3.63;1.48;;;;;;;23.86;41.45;100263.16;10391918;28;20049;-77
2022/08/24 00:38:34;;;;;;;2.72;1.35;;;;;;;23.83;41.28;100266.25;10389047;28;20052;-75
2022/08/24 00:43:36;;;;;;;5.15;2.67;;;;;;;23.78;41.44;100272.34;10386845;28;20049;-76
2022/08/24 00:48:43;;;;;;;3.05;1.40;;;;;;;23.76;41.68;100265.44;10390683;28;20204;-75
2022/08/24 00:53:49;;;;;;;2.88;1.25;;;;;;;23.73;41.91;100263.13;10389013;28;20072;-77
2022/08/24 00:58:56;;;;;;;2.45;1.38;;;;;;;23.64;41.69;100259.78;10395121;28;20048;-79
2022/08/24 01:03:58;;;;;;;2.63;1.20;;;;;;;23.67;42.58;100263.97;10395461;28;20503;-79
2022/08/24 01:09:00;;;;;;;3.20;1.63;;;;;;;23.63;42.22;100267.09;10387264;28;20051;-78
2022/08/24 01:14:03;;;;;;;3.33;1.33;;;;;;;23.63;42.81;100269.00;10391608;28;20789;-77
2022/08/24 01:19:16;;;;;;;1.77;1.05;;;;;;;23.58;42.58;100266.06;10396291;28;20084;-79
2022/08/24 01:24:17;;;;;;;2.47;1.85;;;;;;;23.63;43.11;100286.13;10389535;28;20139;-77
2022/08/24 01:29:23;;;;;;;1.23;1.10;;;;;;;23.56;43.21;100285.28;10402562;28;20192;-75
2022/08/24 01:34:26;;;;;;;1.85;1.20;;;;;;;23.50;43.14;100291.56;10405873;28;20071;-75
2022/08/24 01:39:31;;;;;;;2.88;1.08;;;;;;;23.47;43.59;100283.81;10406245;28;20080;-75
2022/08/24 01:44:36;;;;;;;1.45;1.17;;;;;;;23.39;43.49;100292.16;10407079;28;20194;-80
2022/08/24 01:49:41;;;;;;;2.08;0.90;;;;;;;23.32;44.04;100291.34;10408503;28;20191;-75
2022/08/24 01:54:43;;;;;;;2.25;1.15;;;;;;;23.22;43.83;100284.41;10409577;28;20135;-77
2022/08/24 01:59:45;;;;;;;2.50;1.13;;;;;;;23.26;44.57;100298.41;10387290;28;20048;-74
2022/08/24 02:04:46;;;;;;;2.67;1.40;;;;;;;23.27;44.52;100302.81;10402496;28;20044;-75
2022/08/24 02:09:50;;;;;;;4.68;2.33;;;;;;;23.25;44.41;100303.00;10413799;28;20409;-76
2022/08/24 02:14:52;;;;;;;1.50;1.10;;;;;;;23.17;44.75;100302.38;10407772;28;20077;-73
2022/08/24 02:19:54;;;;;;;2.40;1.20;;;;;;;23.07;45.26;100308.97;10404757;28;22142;-75
2022/08/24 02:24:55;;;;;;;1.60;0.93;;;;;;;22.97;45.52;100308.56;10387925;28;20045;-75
2022/08/24 02:29:57;;;;;;;2.45;1.10;;;;;;;22.85;45.44;100296.59;10400670;28;20112;-75
2022/08/24 02:34:58;;;;;;;2.58;1.20;;;;;;;22.92;46.08;100308.31;10388981;28;20140;-73
2022/08/24 02:40:00;;;;;;;2.00;1.40;;;;;;;22.84;46.21;100298.47;10382849;28;20053;-76
2022/08/24 02:45:04;;;;;;;1.08;0.93;;;;;;;22.82;46.50;100305.13;10395931;28;20076;-71
2022/08/24 02:50:09;;;;;;;1.33;0.95;;;;;;;22.76;46.66;100301.38;10394450;28;20048;-76
2022/08/24 02:55:15;;;;;;;2.30;1.20;;;;;;;22.74;46.67;100300.72;10394927;28;20060;-73
2022/08/24 03:00:21;;;;;;;1.80;1.25;;;;;;;22.81;46.89;100304.31;10394146;28;20192;-76
2022/08/24 03:05:24;;;;;;;4.18;1.50;;;;;;;22.80;46.66;100313.47;10397079;28;20553;-74
2022/08/24 03:10:26;;;;;;;2.20;1.35;;;;;;;22.77;46.90;100305.75;10393190;28;20160;-74
2022/08/24 03:15:28;;;;;;;2.92;1.33;;;;;;;22.71;47.13;100303.84;10396576;28;20048;-74
2022/08/24 03:21:05;;;;;;;2.50;1.17;;;;;;;22.74;47.30;100308.84;10397665;28;20045;-73
2022/08/24 03:26:07;;;;;;;2.90;1.15;;;;;;;22.71;47.04;100309.28;10289075;28;20055;-76
2022/08/24 03:31:08;;;;;;;3.15;1.23;;;;;;;;;;10397413;28;20060;-73
2022/08/24 03:36:10;;;;;;;2.25;1.10;;;;;;;22.72;48.00;100302.81;10383108;28;20118;-72
2022/08/24 03:41:14;;;;;;;3.25;1.38;;;;;;;22.68;48.22;100299.66;10393403;28;20057;-78
2022/08/24 03:46:28;;;;;;;3.53;1.50;;;;;;;22.66;48.01;100300.91;10400950;28;20156;-74
2022/08/24 03:51:30;;;;;;;1.42;1.05;;;;;;;22.70;47.92;100296.72;10396573;28;20175;-73
2022/08/24 03:56:31;;;;;;;1.98;1.15;;;;;;;22.67;48.01;100297.13;10392974;28;20134;-73
2022/08/24 04:01:33;;;;;;;2.03;1.05;;;;;;;22.68;48.27;100304.25;10396144;28;20131;-77
2022/08/24 04:06:34;;;;;;;3.13;1.23;;;;;;;22.71;48.06;100303.84;10398785;28;20459;-77
2022/08/24 04:11:36;;;;;;;1.70;1.13;;;;;;;22.74;48.41;100308.84;10384028;28;20069;-76
2022/08/24 04:16:43;;;;;;;3.00;1.27;;;;;;;22.73;48.34;100309.91;10398013;28;20064;-72
2022/08/24 04:21:52;;;;;;;4.25;1.95;;;;;;;22.68;48.37;100306.97;10396506;28;20049;-74
2022/08/24 04:26:53;;;;;;;2.25;1.23;;;;;;;22.66;48.63;100303.63;10399795;28;20128;-75
2022/08/24 04:31:55;;;;;;;2.90;1.38;;;;;;;22.60;48.77;100307.97;10407277;28;20696;-77
2022/08/24 04:36:56;;;;;;;1.55;1.40;;;;;;;22.53;48.39;100301.66;10409476;28;20057;-74
2022/08/24 04:41:58;;;;;;;2.63;1.50;;;;;;;22.56;49.23;100312.13;10400932;28;20108;-74
2022/08/24 04:47:04;;;;;;;2.10;1.52;;;;;;;22.59;49.08;100315.28;10388371;28;20052;-76
2022/08/24 04:52:10;;;;;;;6.60;1.48;;;;;;;22.56;49.18;100321.13;10381156;28;20555;-75
2022/08/24 04:57:11;;;;;;;2.13;1.38;;;;;;;22.53;48.37;100323.38;10386921;28;20044;-75
2022/08/24 05:02:19;;;;;;;2.15;1.65;;;;;;;22.45;48.37;100315.41;10386308;28;20061;-75
2022/08/24 05:07:21;;;;;;;3.00;1.50;;;;;;;22.41;48.48;100331.22;10378495;28;20132;-73
2022/08/24 05:12:23;;;;;;;2.00;1.60;;;;;;;22.45;48.87;100339.81;10384413;28;20291;-75
2022/08/24 05:17:25;;;;;;;2.10;1.27;;;;;;;22.50;48.61;100335.44;10386059;28;20053;-76
2022/08/24 05:22:27;;;;;;;4.63;2.30;;;;;;;22.43;48.62;100331.88;10370806;28;20048;-75
2022/08/24 05:27:28;;;;;;;1.58;1.27;;;;;;;22.48;48.72;100344.84;10386988;28;20057;-74
2022/08/24 05:32:29;;;;;;;6.00;1.45;;;;;;;22.48;49.27;100342.13;10388593;28;20155;-75
2022/08/24 05:37:34;;;;;;;3.30;1.35;;;;;;;22.51;49.37;100342.56;10374454;28;20110;-74
2022/08/24 05:42:36;;;;;;;3.20;1.52;;;;;;;22.64;48.47;100346.38;10391025;28;22306;-74
2022/08/24 05:47:38;;;;;;;2.55;1.30;;;;;;;22.63;48.60;100355.56;10393056;28;20079;-77
2022/08/24 05:52:39;;;;;;;3.80;1.40;;;;;;;22.64;49.06;100341.81;10368096;28;20067;-73
2022/08/24 05:57:42;;;;;;;3.22;1.30;;;;;;;22.65;49.07;100345.34;10376496;28;20883;-73
2022/08/24 06:02:43;;;;;;;1.93;1.60;;;;;;;22.74;49.21;100350.41;10392496;28;20053;-75
2022/08/24 06:07:45;;;;;;;2.50;1.50;;;;;;;22.89;48.52;100361.09;10387473;28;20053;-75
2022/08/24 06:12:47;;;;;;;2.85;1.52;;;;;;;23.00;49.11;100362.44;10386512;28;20163;-75
2022/08/24 06:17:49;;;;;;;3.17;1.60;;;;;;;23.07;48.90;100357.84;10396293;28;20360;-73
2022/08/24 06:22:50;;;;;;;4.70;1.42;;;;;;;23.19;48.75;100349.97;10392937;28;20053;-74
2022/08/24 06:27:52;;;;;;;2.88;1.20;;;;;;;23.27;50.32;100368.81;10397518;28;20045;-75
2022/08/24 06:32:58;;;;;;;4.60;1.90;;;;;;;23.29;48.32;100350.44;10390539;28;20053;-74
2022/08/24 06:38:00;;;;;;;3.55;1.27;;;;;;;23.50;50.18;100364.91;10395377;28;20052;-75
2022/08/24 06:43:03;;;;;;;9.73;2.00;;;;;;;23.58;49.08;100372.84;10376909;28;20057;-75
2022/08/24 06:48:04;;;;;;;1.88;1.40;;;;;;;23.58;49.15;100380.16;10395452;28;20045;-76
2022/08/24 06:53:06;;;;;;;3.90;1.92;;;;;;;23.74;47.58;100371.63;10387393;28;20115;-72
2022/08/24 06:58:08;;;;;;;2.70;1.30;;;;;;;23.99;46.40;100379.22;10389615;28;20057;-73
2022/08/24 07:03:10;;;;;;;2.58;1.27;;;;;;;23.93;48.19;100372.72;10396504;28;20059;-74
2022/08/24 07:08:11;;;;;;;2.25;1.30;;;;;;;24.22;46.40;100367.88;10392307;28;20496;-76
2022/08/24 07:13:13;;;;;;;3.25;1.40;;;;;;;24.47;45.61;100368.06;10394781;28;20764;-76
2022/08/24 07:18:16;;;;;;;3.35;1.58;;;;;;;24.65;46.40;100378.31;10376447;28;20147;-76
2022/08/24 07:23:18;;;;;;;3.78;1.10;;;;;;;24.83;45.23;100380.34;10386723;28;20266;-75
2022/08/24 07:28:20;;;;;;;2.55;1.48;;;;;;;25.14;44.39;100383.38;10393720;28;20049;-74
2022/08/24 07:33:32;;;;;;;4.07;1.83;;;;;;;25.25;43.66;100385.41;10374472;28;20060;-74
2022/08/24 07:38:34;;;;;;;2.05;1.38;;;;;;;25.37;43.83;100389.16;10396600;28;20432;-75
2022/08/24 07:43:35;;;;;;;3.97;1.42;;;;;;;25.62;44.24;100379.38;10392992;28;20215;-77
2022/08/24 07:48:44;;;;;;;7.47;1.90;;;;;;;25.64;43.50;100393.59;10393037;28;20049;-76
2022/08/24 07:53:46;;;;;;;3.58;1.30;;;;;;;25.77;43.04;100388.06;10396327;28;20052;-75
2022/08/24 07:58:54;;;;;;;3.72;1.95;;;;;;;25.88;43.33;100389.22;10373874;28;20135;-75
2022/08/24 08:03:56;;;;;;;4.95;1.70;;;;;;;25.96;43.10;100388.13;10391935;28;20053;-76
2022/08/24 08:08:57;;;;;;;4.50;2.03;;;;;;;26.06;42.38;100402.13;10394307;28;20056;-74
2022/08/24 08:13:59;;;;;;;3.45;1.40;;;;;;;26.09;43.13;100405.25;10390002;28;20110;-75
2022/08/24 08:19:00;;;;;;;4.78;1.50;;;;;;;26.22;42.07;100403.47;10387277;28;20049;-73
2022/08/24 08:24:18;;;;;;;2.17;1.65;;;;;;;26.30;43.06;100414.09;10392940;28;20145;-74
2022/08/24 08:29:21;;;;;;;4.45;1.50;;;;;;;26.29;41.52;100398.81;10393224;28;20126;-75
2022/08/24 08:34:22;;;;;;;1.90;1.17;;;;;;;26.57;41.52;100408.38;10394343;28;20045;-75
2022/08/24 08:39:25;;;;;;;5.25;1.65;;;;;;;26.83;40.69;100412.78;10405848;28;20155;-71
2022/08/24 08:45:03;;;;;;;3.53;1.60;;;;;;;26.91;41.32;100403.44;10410191;28;20187;-74
2022/08/24 08:50:24;;;;;;;5.07;1.40;;;;;;;27.34;40.13;100399.78;10400543;28;20052;-76
2022/08/24 08:55:47;;;;;;;3.58;1.42;;;;;;;27.63;39.61;100408.19;10390587;28;20122;-76
2022/08/24 09:01:23;;;;;;;5.60;1.40;;;;;;;27.69;39.48;100404.53;10393959;28;20056;-77
2022/08/24 09:06:39;;;;;;;4.82;1.85;;;;;;;27.86;38.37;100405.53;10385721;28;20060;-76
2022/08/24 09:11:49;;;;;;;6.22;1.88;;;;;;;28.24;38.42;100405.38;10388338;28;20052;-77
2022/08/24 09:17:06;;;;;;;2.95;1.55;;;;;;;28.45;37.28;100396.56;10389818;28;20053;-77
2022/08/24 09:22:16;;;;;;;2.10;1.25;;;;;;;28.76;36.93;100391.78;10368407;28;20045;-76
2022/08/24 09:27:51;;;;;;;4.05;1.77;;;;;;;29.10;36.60;100397.44;10389320;28;20509;-77
2022/08/24 09:33:08;;;;;;;5.07;1.70;;;;;;;29.36;35.99;100389.75;10381663;28;20049;-76
2022/08/24 09:38:33;;;;;;;4.32;1.20;;;;;;;29.52;35.81;100391.69;10391038;28;20616;-75
2022/08/24 09:43:59;;;;;;;3.33;1.60;;;;;;;29.91;34.73;100383.63;10391916;28;20048;-73
2022/08/24 09:49:22;;;;;;;2.63;1.38;;;;;;;30.60;32.56;100393.50;10385602;28;20056;-76
2022/08/24 09:54:38;;;;;;;2.42;1.58;;;;;;;31.21;32.07;100395.38;10398100;28;20470;-76
2022/08/24 09:59:46;;;;;;;4.72;1.25;;;;;;;31.82;31.66;100391.63;10404106;28;20057;-73
2022/08/24 10:05:11;;;;;;;4.05;1.60;;;;;;;31.97;29.73;100390.91;10400818;28;20564;-73
2022/08/24 10:10:29;;;;;;;3.90;1.20;;;;;;;32.38;28.76;100378.31;10399880;28;20694;-75
2022/08/24 10:15:54;;;;;;;2.38;1.00;;;;;;;32.39;29.24;100363.41;10404370;28;20091;-74
2022/08/24 10:21:11;;;;;;;3.95;1.10;;;;;;;33.50;27.38;100362.50;10400437;28;20056;-76
2022/08/24 10:26:26;;;;;;;3.35;1.60;;;;;;;36.05;24.38;100355.47;10411397;28;20049;-74
2022/08/24 10:31:58;;;;;;;5.70;1.40;;;;;;;38.11;21.62;100352.69;10408704;28;20045;-75
2022/08/24 10:37:12;;;;;;;2.85;1.00;;;;;;;39.63;21.10;100359.22;10397951;28;20104;-76
2022/08/24 10:48:26;;;;;;;3.50;0.80;;;;;;;37.87;20.21;100341.72;10399497;28;20632;-76
2022/08/24 10:53:30;;;;;;;1.98;1.67;;;;;;;41.39;17.23;100338.41;10401581;28;20053;-78
2022/08/24 10:58:44;;;;;;;2.88;0.90;;;;;;;44.23;14.10;100341.25;10395881;28;20989;-77
2022/08/24 11:04:09;;;;;;;3.25;1.13;;;;;;;44.95;14.08;100332.31;10396242;28;20131;-76
2022/08/24 11:09:14;;;;;;;2.63;0.80;;;;;;;45.66;13.06;100331.94;10385666;28;20055;-75
2022/08/24 11:14:28;;;;;;;2.08;0.70;;;;;;;46.36;12.67;100337.00;10401918;28;20526;-75
2022/08/24 11:19:33;;;;;;;3.13;0.80;;;;;;;46.83;12.90;100326.81;10396138;28;20055;-78
2022/08/24 11:24:42;;;;;;;1.58;0.70;;;;;;;46.71;11.72;100310.88;10396577;28;20055;-74
2022/08/24 11:29:50;;;;;;;2.80;0.82;;;;;;;45.76;12.68;100308.91;10381597;28;20045;-79
2022/08/24 11:34:52;;;;;;;1.97;0.80;;;;;;;45.06;13.37;100309.34;10395945;28;20487;-76
2022/08/24 11:39:53;;;;;;;1.95;0.60;;;;;;;44.76;13.17;100307.66;10396312;28;20072;-77
2022/08/24 11:45:31;;;;;;;2.15;0.80;;;;;;;43.74;14.19;100302.69;10381759;28;20064;-75
2022/08/24 11:50:47;;;;;;;3.30;0.70;;;;;;;43.02;15.52;100283.28;10315094;28;20127;-76
2022/08/24 11:56:10;;;;;;;2.80;1.17;;;;;;;41.96;15.94;100287.00;10400997;28;20045;-77
2022/08/24 12:01:26;;;;;;;3.55;0.70;;;;;;;40.55;16.41;100280.69;10397862;28;20076;-77
2022/08/24 12:06:40;;;;;;;2.85;1.08;;;;;;;39.44;17.41;100275.88;10401552;28;20049;-77
2022/08/24 12:11:53;;;;;;;3.47;1.00;;;;;;;38.71;20.14;100281.47;10397293;28;20056;-76
2022/08/24 12:17:10;;;;;;;3.05;1.15;;;;;;;38.25;18.35;100274.09;10403919;28;20531;-77
2022/08/24 12:22:12;;;;;;;1.65;1.02;;;;;;;37.85;19.33;100260.69;10400289;28;21142;-77
2022/08/24 12:27:22;;;;;;;1.92;0.90;;;;;;;37.20;20.06;100265.06;10395252;28;20061;-76
2022/08/24 12:32:29;;;;;;;1.60;1.02;;;;;;;36.66;20.79;100263.63;10393437;28;20073;-76
2022/08/24 12:37:39;;;;;;;3.15;1.33;;;;;;;36.19;20.62;100260.59;10401954;28;20123;-77
2022/08/24 12:42:57;;;;;;;2.97;1.10;;;;;;;35.86;22.06;100257.63;10399975;28;20193;-75
2022/08/24 12:48:11;;;;;;;5.00;1.48;;;;;;;35.35;22.75;100256.94;10412365;28;20144;-77
2022/08/24 12:53:24;;;;;;;3.75;1.13;;;;;;;35.31;22.50;100252.28;10406113;28;20127;-76
2022/08/24 12:58:55;;;;;;;4.07;1.40;;;;;;;35.25;22.62;100245.13;10394464;28;20166;-77
2022/08/24 13:04:09;;;;;;;2.65;1.10;;;;;;;35.28;22.00;100241.81;10370825;28;20049;-77
2022/08/24 13:09:27;;;;;;;1.25;1.15;;;;;;;35.23;22.27;100245.41;10391070;28;20217;-75
2022/08/24 13:14:28;;;;;;;1.75;1.08;;;;;;;35.31;23.03;100236.53;10391810;28;20055;-76
2022/08/24 13:19:43;;;;;;;2.55;1.05;;;;;;;35.41;22.43;100230.06;10400244;28;20276;-75
2022/08/24 13:24:47;;;;;;;3.72;1.20;;;;;;;35.34;22.16;100235.97;10374604;28;20654;-77
2022/08/24 13:29:53;;;;;;;4.72;1.88;;;;;;;34.97;22.50;100225.44;10372573;28;20659;-77
2022/08/24 13:34:57;;;;;;;2.75;1.10;;;;;;;35.04;21.53;100228.69;10389769;28;20657;-77
2022/08/24 13:40:16;;;;;;;4.30;1.00;;;;;;;34.84;22.67;100229.66;10392177;28;20049;-75
2022/08/24 13:45:37;;;;;;;3.10;1.13;;;;;;;34.93;22.13;100207.75;10391598;28;20526;-76
2022/08/24 13:51:07;;;;;;;2.75;1.30;;;;;;;35.02;22.06;100214.31;10392887;28;20424;-75
2022/08/24 13:56:24;;;;;;;3.40;1.27;;;;;;;34.92;21.36;100200.56;10391624;28;20045;-75
2022/08/24 14:01:46;;;;;;;4.38;1.17;;;;;;;34.96;22.37;100212.72;10391384;28;20044;-75
2022/08/24 14:06:54;;;;;;;2.28;1.40;;;;;;;34.45;22.38;100213.81;10393304;28;20546;-75
2022/08/24 14:12:17;;;;;;;3.42;1.10;;;;;;;34.13;22.62;100207.59;10390992;28;20053;-77
2022/08/24 14:17:52;;;;;;;2.85;1.35;;;;;;;34.22;22.76;100204.25;10394595;28;20111;-76
2022/08/24 14:23:20;;;;;;;3.33;1.38;;;;;;;34.07;23.50;100192.16;10387023;28;20057;-77
2022/08/24 14:28:42;;;;;;;1.70;1.02;;;;;;;34.05;23.06;100190.78;10377778;28;20348;-75
2022/08/24 14:33:59;;;;;;;4.05;1.40;;;;;;;33.87;22.58;100189.44;10397019;28;20079;-78
2022/08/24 14:39:36;;;;;;;3.67;1.58;;;;;;;33.56;22.90;100186.75;10375003;28;20478;-79
2022/08/24 14:44:49;;;;;;;3.05;1.58;;;;;;;33.27;22.86;100184.59;10327064;28;20659;-77
2022/08/24 14:50:18;;;;;;;4.28;1.35;;;;;;;33.19;23.28;100176.81;10403794;28;20067;-77
2022/08/24 14:55:37;;;;;;;3.05;1.20;;;;;;;33.08;23.64;100171.31;10395858;28;20103;-77
2022/08/24 15:01:08;;;;;;;1.95;1.00;;;;;;;33.03;23.39;100168.56;10381435;28;20261;-73
2022/08/24 15:06:44;;;;;;;4.93;1.15;;;;;;;33.06;23.94;100162.50;10359187;28;20056;-76
2022/08/24 15:11:47;;;;;;;2.95;1.25;;;;;;;33.08;23.14;100164.97;10362018;28;20052;-76
2022/08/24 15:17:01;;;;;;;1.92;1.25;;;;;;;32.92;23.36;100150.34;10357962;28;20056;-77
2022/08/24 15:22:08;;;;;;;2.95;1.20;;;;;;;32.90;23.48;100147.06;10398538;28;20114;-75
2022/08/24 15:27:13;;;;;;;4.32;1.50;;;;;;;32.83;22.68;100149.25;10401508;28;20044;-75
2022/08/24 15:32:15;;;;;;;1.75;0.90;;;;;;;32.74;23.05;100141.53;10402413;28;20136;-76
2022/08/24 15:37:30;;;;;;;3.78;1.40;;;;;;;32.63;22.99;100137.06;10410005;28;20424;-75
2022/08/24 15:42:34;;;;;;;2.92;1.20;;;;;;;32.69;23.28;100140.69;10428472;28;20076;-79
2022/08/24 15:47:42;;;;;;;4.95;1.20;;;;;;;32.59;22.95;100135.97;10434402;28;20106;-75
2022/08/24 15:52:56;;;;;;;;;;;;;;;32.47;22.98;100149.97;10425722;28;20064;-75
2022/08/24 15:58:25;;;;;;;4.10;1.02;;;;;;;32.39;23.32;100148.59;10399995;28;20049;-74
2022/08/24 16:03:43;;;;;;;1.80;0.98;;;;;;;32.29;23.64;100145.81;10392039;28;20144;-74
2022/08/24 16:09:11;;;;;;;3.45;1.25;;;;;;;32.08;23.54;100142.13;10390239;28;20086;-73
2022/08/24 16:14:31;;;;;;;3.05;1.08;;;;;;;31.94;23.80;100146.50;10397451;28;20052;-73
2022/08/24 16:19:34;;;;;;;5.20;1.40;;;;;;;31.88;24.02;100143.69;10405211;28;20048;-75
2022/08/24 16:24:40;;;;;;;3.25;0.75;;;;;;;31.75;24.30;100141.44;10404934;28;20143;-76
2022/08/24 16:29:45;;;;;;;3.80;1.20;;;;;;;31.65;24.27;100144.16;10387346;28;20439;-73
2022/08/24 16:34:53;;;;;;;3.13;1.00;;;;;;;31.51;23.99;100144.59;10403773;28;20041;-73
2022/08/24 16:39:54;;;;;;;3.10;1.30;;;;;;;31.40;24.12;100150.28;10375119;28;20053;-74
2022/08/24 16:44:58;;;;;;;2.58;1.60;;;;;;;31.36;24.68;100153.56;10371208;28;20053;-75
2022/08/24 16:49:59;;;;;;;2.33;0.77;;;;;;;31.31;24.71;100150.78;10385207;28;20129;-76
2022/08/24 16:55:00;;;;;;;1.80;1.25;;;;;;;31.18;25.16;100140.22;10383165;28;20161;-76
2022/08/24 17:00:14;;;;;;;2.97;1.30;;;;;;;31.14;25.11;100150.94;10382035;28;20099;-74
2022/08/24 17:05:16;;;;;;;2.70;0.85;;;;;;;31.02;24.83;100148.34;10394408;28;20071;-75
2022/08/24 17:10:19;;;;;;;2.15;1.13;;;;;;;30.92;25.01;100147.41;10371494;28;20059;-74
2022/08/24 17:15:22;;;;;;;2.03;1.60;;;;;;;30.87;25.13;100150.94;10382054;28;20055;-75
2022/08/24 17:20:24;;;;;;;1.40;0.68;;;;;;;30.77;25.75;100150.84;10379810;28;20064;-74
2022/08/24 17:25:28;;;;;;;3.92;1.10;;;;;;;30.63;25.90;100140.28;10403627;28;20126;-76
2022/08/24 17:30:29;;;;;;;1.40;0.93;;;;;;;30.56;25.79;100153.38;10422566;28;20593;-74
2022/08/24 17:35:57;;;;;;;2.80;1.10;;;;;;;30.43;25.90;100151.91;10347933;27;20370;-63
2022/08/24 17:40:59;;;;;;;2.95;1.00;;;;;;;30.35;26.38;100166.03;10338660;28;20132;-64
2022/08/24 17:46:01;;;;;;;2.67;1.33;;;;;;;30.22;26.37;100159.03;10339881;28;20523;-63
2022/08/24 17:51:02;;;;;;;2.17;1.33;;;;;;;30.17;27.15;100169.94;10336925;28;20069;-65
2022/08/24 17:56:08;;;;;;;2.85;1.00;;;;;;;30.07;27.31;100169.81;10344190;28;20503;-65
2022/08/24 18:01:09;;;;;;;1.80;1.10;;;;;;;29.97;28.37;100176.03;10336604;28;20165;-64
2022/08/24 18:06:11;;;;;;;1.90;1.57;;;;;;;29.86;28.85;100175.06;10339300;28;20060;-65
2022/08/24 18:11:13;;;;;;;3.70;1.80;;;;;;;29.74;29.11;100182.50;10342164;28;20062;-65
2022/08/24 18:16:18;;;;;;;2.35;1.77;;;;;;;29.61;29.25;100183.72;10344213;28;20152;-65
2022/08/24 18:21:21;;;;;;;4.28;2.25;;;;;;;29.52;28.83;100185.22;10335334;28;21246;-65
2022/08/24 18:26:25;;;;;;;5.00;2.58;;;;;;;29.39;29.19;100200.91;10340351;28;20042;-63
2022/08/24 18:31:29;;;;;;;3.97;2.42;;;;;;;29.25;29.66;100210.56;10336427;28;20130;-66
2022/08/24 18:36:30;;;;;;;2.75;1.80;;;;;;;29.09;29.65;100209.44;10338860;28;20049;-65
2022/08/24 18:41:35;;;;;;;3.17;1.30;;;;;;;28.95;29.84;100211.66;10336829;28;20049;-65
2022/08/24 18:46:37;;;;;;;2.58;1.27;;;;;;;28.84;30.03;100213.41;10307864;28;20479;-64
2022/08/24 18:51:40;;;;;;;3.00;1.35;;;;;;;28.77;30.26;100215.44;10292953;28;20048;-65
2022/08/24 18:56:43;;;;;;;1.80;1.60;;;;;;;28.66;29.86;100219.91;10299607;28;20066;-64
2022/08/24 19:07:08;;;;;;;5.95;2.47;;;;;;;28.42;29.63;100230.09;10305037;28;20061;-64
2022/08/24 19:12:09;;;;;;;1.95;1.20;;;;;;;28.30;29.54;100237.47;10315578;28;20125;-65
2022/08/24 19:17:11;;;;;;;3.28;1.65;;;;;;;28.19;29.62;100233.69;10316663;28;20057;-64
2022/08/24 19:22:14;;;;;;;6.13;1.90;;;;;;;28.15;29.85;100238.81;10313561;28;20061;-65
2022/08/24 19:27:16;;;;;;;3.00;1.38;;;;;;;28.09;30.40;100237.06;10313862;28;20053;-63
2022/08/24 19:32:25;;;;;;;4.93;2.35;;;;;;;28.00;30.13;100239.31;10319547;28;20148;-64
2022/08/24 19:37:26;;;;;;;4.22;1.67;;;;;;;27.94;30.74;100232.03;10314254;28;20749;-65
2022/08/24 19:42:28;;;;;;;4.95;1.50;;;;;;;27.85;30.63;100231.56;10292503;28;20743;-64
2022/08/24 19:47:33;;;;;;;3.30;1.55;;;;;;;27.72;30.92;100229.06;10311625;28;20049;-64
2022/08/24 19:52:36;;;;;;;2.40;1.20;;;;;;;27.59;31.18;100235.59;10314704;28;20060;-64
2022/08/24 19:57:48;;;;;;;4.45;1.50;;;;;;;27.53;31.27;100233.81;10313252;28;20145;-64
2022/08/24 20:02:52;;;;;;;4.20;1.50;;;;;;;27.37;31.20;100246.28;10324957;28;20061;-63
2022/08/24 20:07:54;;;;;;;3.55;1.30;;;;;;;27.34;31.27;100238.56;10306086;28;20380;-63
2022/08/24 20:12:56;;;;;;;5.95;1.58;;;;;;;27.30;31.71;100240.06;10316883;28;20143;-64
2022/08/24 20:17:58;;;;;;;2.45;1.40;;;;;;;27.25;31.81;100245.38;10310070;28;20049;-65
2022/08/24 20:23:04;;;;;;;2.70;1.33;;;;;;;27.19;31.50;100240.84;10308752;28;20077;-63
2022/08/24 20:28:07;;;;;;;4.03;2.10;;;;;;;27.13;31.87;100238.00;10316398;28;20206;-63
2022/08/24 20:33:29;;;;;;;1.45;1.10;;;;;;;27.04;36.05;100236.66;10304073;28;20056;-59
2022/08/24 20:38:30;;;;;;;5.25;2.53;;;;;;;26.97;34.83;100246.84;10307170;28;20132;-59
2022/08/24 20:43:33;;;;;;;3.88;1.33;;;;;;;26.89;32.94;100249.88;10316323;28;20077;-59
2022/08/24 20:48:34;;;;;;;3.30;1.27;;;;;;;26.80;33.02;100246.66;10338335;28;20080;-60
2022/08/24 20:53:43;;;;;;;5.43;1.40;;;;;;;26.74;33.47;100248.41;10332221;28;20405;-60
2022/08/24 20:58:44;;;;;;;3.03;1.40;;;;;;;26.68;34.04;100240.31;10337360;28;20054;-59
2022/08/24 21:03:46;;;;;;;2.35;1.10;;;;;;;26.61;33.92;100248.56;10332555;28;20054;-59
2022/08/24 21:08:50;;;;;;;1.70;1.17;;;;;;;26.53;33.54;100238.78;10332414;28;20124;-60
2022/08/24 21:13:52;;;;;;;2.97;1.50;;;;;;;26.51;32.95;100245.53;10331430;28;20144;-61
2022/08/24 21:18:53;;;;;;;2.45;1.35;;;;;;;26.36;33.85;100233.13;10340298;28;20060;-60
2022/08/24 21:23:55;;;;;;;6.72;1.35;;;;;;;26.32;34.58;100248.28;10333164;28;20222;-60
2022/08/24 21:28:57;;;;;;;1.40;1.05;;;;;;;26.21;34.71;100251.75;10341308;28;20735;-60
2022/08/24 21:39:20;;;;;;;4.05;1.50;;;;;;;25.97;34.68;100251.56;10332430;28;20297;-61
2022/08/24 21:44:21;;;;;;;3.42;1.10;;;;;;;25.88;34.69;100258.34;10328273;28;20577;-61
2022/08/24 21:49:23;;;;;;;2.97;1.13;;;;;;;25.75;35.11;100265.59;10330721;28;20256;-61
2022/08/24 21:54:25;;;;;;;5.75;1.75;;;;;;;25.68;34.91;100264.81;10339004;28;20529;-61
2022/08/24 21:59:26;;;;;;;1.67;1.17;;;;;;;25.70;34.90;100278.22;10342632;28;20087;-60
2022/08/24 22:04:28;;;;;;;4.43;1.50;;;;;;;25.64;35.42;100274.53;10337408;28;20702;-61
2022/08/24 22:09:29;;;;;;;2.83;1.40;;;;;;;25.61;35.51;100268.69;10340028;28;20045;-60
2022/08/24 22:14:30;;;;;;;2.63;1.33;;;;;;;25.58;35.50;100269.94;10332718;28;20751;-61
2022/08/24 22:19:32;;;;;;;2.63;1.40;;;;;;;25.50;35.65;100262.06;10342506;28;20049;-61
2022/08/24 22:24:35;;;;;;;3.42;1.40;;;;;;;25.43;35.99;100266.72;10338367;28;20054;-60
2022/08/24 22:29:36;;;;;;;2.75;1.33;;;;;;;25.35;35.99;100278.72;10338155;28;20069;-60
2022/08/24 22:34:37;;;;;;;3.08;1.35;;;;;;;25.29;36.10;100266.78;10336097;28;20096;-60
2022/08/24 22:39:39;;;;;;;5.78;2.05;;;;;;;25.21;36.29;100269.78;10347183;28;22142;-61
2022/08/24 22:44:41;;;;;;;2.70;1.52;;;;;;;25.14;37.25;100264.38;10338773;28;20046;-59
2022/08/24 22:49:43;;;;;;;4.78;1.63;;;;;;;25.08;37.07;100272.59;10342567;28;20128;-60
2022/08/24 22:54:45;;;;;;;4.87;1.60;;;;;;;24.98;37.43;100270.34;10337771;28;20206;-58
2022/08/24 22:59:46;;;;;;;2.40;1.40;;;;;;;24.93;37.32;100270.16;10337355;28;20846;-61
2022/08/24 23:04:50;;;;;;;6.22;1.38;;;;;;;24.87;37.92;100269.13;10335986;28;20887;-59
2022/08/24 23:09:51;;;;;;;3.90;1.60;;;;;;;24.83;38.02;100279.63;10335592;28;20049;-59
2022/08/24 23:14:53;;;;;;;3.05;1.48;;;;;;;24.81;38.03;100276.28;10338960;28;20139;-59
2022/08/24 23:20:03;;;;;;;3.83;2.03;;;;;;;24.75;38.01;100270.88;10333678;28;20168;-59
2022/08/24 23:25:11;;;;;;;6.30;2.00;;;;;;;24.70;38.64;100266.91;10340648;28;20643;-59
2022/08/24 23:30:13;;;;;;;4.80;2.22;;;;;;;24.65;38.91;100272.19;10334398;28;20155;-59
2022/08/24 23:35:14;;;;;;;2.03;1.58;;;;;;;24.59;39.10;100266.75;10326938;28;20056;-59
2022/08/24 23:40:18;;;;;;;3.55;1.80;;;;;;;24.57;39.03;100266.94;10332706;28;20136;-59
2022/08/24 23:45:20;;;;;;;2.80;1.90;;;;;;;24.49;38.68;100264.47;10326575;28;20137;-59
2022/08/24 23:50:31;;;;;;;2.42;1.70;;;;;;;24.47;39.32;100266.56;10334022;28;20142;-59